createdAt,value
2023-03-03T00:01:38.547Z,99659.16
2023-03-03T00:04:05.075Z,99662.53
2023-03-03T00:06:31.750Z,99667.53
2023-03-03T00:08:59.295Z,99664.38
2023-03-03T00:11:25.844Z,99672.63
2023-03-03T00:13:54.428Z,99678.94
2023-03-03T00:16:37.384Z,99678.22
2023-03-03T00:19:04.703Z,99684.50
2023-03-03T00:21:33.867Z,99685.69
2023-03-03T00:24:18.103Z,99674.31
2023-03-03T00:26:50.144Z,99680.59
2023-03-03T00:29:41.950Z,99671.56
2023-03-03T00:32:26.801Z,99679.03
2023-03-03T00:34:55.857Z,99683.78
2023-03-03T00:37:34.870Z,99676.78
2023-03-03T00:40:20.731Z,99684.66
2023-03-03T00:42:51.372Z,99684.72
2023-03-03T00:45:25.563Z,99672.25
2023-03-03T00:47:52.064Z,99691.00
2023-03-03T00:50:30.047Z,99689.44
2023-03-03T00:53:05.631Z,99691.03
2023-03-03T00:55:34.189Z,99688.31
2023-03-03T00:58:00.886Z,99671.13
2023-03-03T01:00:27.509Z,99698.44
2023-03-03T01:02:54.106Z,99691.00
2023-03-03T01:05:20.936Z,99684.00
2023-03-03T01:07:47.537Z,99689.03
2023-03-03T01:10:14.155Z,99652.03
2023-03-03T01:12:40.769Z,99671.94
2023-03-03T01:15:09.174Z,99676.56
2023-03-03T01:17:36.299Z,99656.72
2023-03-03T01:20:04.138Z,99675.44
2023-03-03T01:22:30.670Z,99658.34
2023-03-03T01:24:58.636Z,99665.31
2023-03-03T01:27:27.855Z,99674.66
2023-03-03T01:29:54.631Z,99669.53
2023-03-03T01:32:21.376Z,99670.41
2023-03-03T01:34:47.839Z,99698.13
2023-03-03T01:37:14.412Z,99684.06
2023-03-03T01:39:40.986Z,99682.88
2023-03-03T01:42:08.205Z,99670.84
2023-03-03T01:44:34.737Z,99684.16
2023-03-03T01:47:17.994Z,99704.56
2023-03-03T01:49:59.005Z,99680.41
2023-03-03T01:52:33.186Z,99707.72
2023-03-03T01:55:03.764Z,99692.09
2023-03-03T01:57:33.755Z,99701.06
2023-03-03T02:00:00.851Z,99703.44
2023-03-03T02:02:28.161Z,99665.59
2023-03-03T02:04:55.016Z,99698.81
2023-03-03T02:07:25.571Z,99696.88
2023-03-03T02:09:52.078Z,99691.44
2023-03-03T02:12:20.909Z,99678.97
2023-03-03T02:14:47.326Z,99661.44
2023-03-03T02:17:14.006Z,99677.44
2023-03-03T02:19:55.355Z,99689.13
2023-03-03T02:22:27.246Z,99689.13
2023-03-03T02:24:59.182Z,99660.22
2023-03-03T02:27:27.230Z,99684.81
2023-03-03T02:29:53.841Z,99663.38
2023-03-03T02:32:20.387Z,99682.13
2023-03-03T02:34:48.552Z,99671.56
2023-03-03T02:37:15.260Z,99684.81
2023-03-03T02:39:41.745Z,99668.84
2023-03-03T02:42:17.276Z,99682.88
2023-03-03T02:44:44.067Z,99678.22
2023-03-03T02:47:10.721Z,99672.00
2023-03-03T02:49:37.719Z,99679.81
2023-03-03T02:52:07.693Z,99678.25
2023-03-03T02:54:34.245Z,99677.47
2023-03-03T02:57:01.574Z,99673.97
2023-03-03T02:59:28.570Z,99678.63
2023-03-03T03:01:55.140Z,99671.25
2023-03-03T03:04:23.960Z,99691.56
2023-03-03T03:06:51.054Z,99699.00
2023-03-03T03:09:19.232Z,99672.84
2023-03-03T03:11:46.117Z,99692.75
2023-03-03T03:14:13.536Z,99704.13
2023-03-03T03:16:40.454Z,99686.94
2023-03-03T03:19:07.805Z,99699.47
2023-03-03T03:21:34.733Z,99667.88
2023-03-03T03:24:01.416Z,99699.91
2023-03-03T03:26:28.032Z,99690.94
2023-03-03T03:28:54.708Z,99711.25
2023-03-03T03:31:21.946Z,99710.09
2023-03-03T03:33:49.051Z,99708.13
2023-03-03T03:36:15.884Z,99708.13
2023-03-03T03:38:42.394Z,99702.25
2023-03-03T03:41:09.135Z,99700.72
2023-03-03T03:43:35.840Z,99686.63
2023-03-03T03:46:02.644Z,99713.59
2023-03-03T03:48:29.272Z,99706.56
2023-03-03T03:50:55.783Z,99696.44
2023-03-03T03:53:22.469Z,99713.59
2023-03-03T03:55:49.185Z,99697.97
2023-03-03T03:58:17.394Z,99696.41
2023-03-03T04:00:45.008Z,99667.13
2023-03-03T04:03:11.926Z,99670.22
2023-03-03T04:05:38.704Z,99696.38
2023-03-03T04:08:05.542Z,99678.44
2023-03-03T04:10:32.266Z,99699.09
2023-03-03T04:12:58.880Z,99694.41
2023-03-03T04:15:25.559Z,99697.91
2023-03-03T04:17:52.109Z,99679.63
2023-03-03T04:20:18.775Z,99696.44
2023-03-03T04:22:45.477Z,99690.56
2023-03-03T04:25:17.056Z,99720.66
2023-03-03T04:27:44.320Z,99703.44
2023-03-03T04:30:11.710Z,99706.59
2023-03-03T04:32:38.311Z,99705.03
2023-03-03T04:35:08.477Z,99683.16
2023-03-03T04:37:36.499Z,99713.25
2023-03-03T04:40:05.525Z,99717.91
2023-03-03T04:42:32.031Z,99711.28
2023-03-03T04:44:58.650Z,99714.78
2023-03-03T04:47:25.365Z,99718.31
2023-03-03T04:49:52.071Z,99715.19
2023-03-03T04:52:18.614Z,99702.69
2023-03-03T04:54:45.246Z,99717.91
2023-03-03T04:57:11.854Z,99700.75
2023-03-03T04:59:38.384Z,99720.25
2023-03-03T05:02:05.429Z,99724.56
2023-03-03T05:04:32.514Z,99717.16
2023-03-03T05:06:59.086Z,99706.59
2023-03-03T05:09:25.602Z,99739.44
2023-03-03T05:11:52.601Z,99720.69
2023-03-03T05:14:19.206Z,99737.84
2023-03-03T05:16:45.846Z,99735.13
2023-03-03T05:19:12.685Z,99743.34
2023-03-03T05:21:42.343Z,99757.41
2023-03-03T05:24:10.321Z,99748.81
2023-03-03T05:26:37.125Z,99730.84
2023-03-03T05:29:04.114Z,99762.06
2023-03-03T05:31:32.128Z,99718.72
2023-03-03T05:34:01.547Z,99755.44
2023-03-03T05:36:28.403Z,99762.84
2023-03-03T05:38:55.104Z,99742.94
2023-03-03T05:41:21.941Z,99744.09
2023-03-03T05:43:50.779Z,99750.38
2023-03-03T05:46:18.668Z,99763.66
2023-03-03T05:48:45.364Z,99756.59
2023-03-03T05:51:12.305Z,99758.19
2023-03-03T05:53:38.903Z,99763.63
2023-03-03T05:56:05.622Z,99780.06
2023-03-03T05:58:32.167Z,99754.25
2023-03-03T06:00:58.776Z,99759.34
2023-03-03T06:03:25.325Z,99760.50
2023-03-03T06:05:51.883Z,99773.03
2023-03-03T06:08:18.546Z,99776.13
2023-03-03T06:10:45.129Z,99788.28
2023-03-03T06:13:11.609Z,99791.78
2023-03-03T06:15:38.191Z,99787.09
2023-03-03T06:18:05.013Z,99789.44
2023-03-03T06:20:32.015Z,99802.72
2023-03-03T06:22:58.967Z,99790.22
2023-03-03T06:25:25.440Z,99793.38
2023-03-03T06:27:52.432Z,99796.06
2023-03-03T06:30:19.136Z,99789.84
2023-03-03T06:32:46.014Z,99797.25
2023-03-03T06:35:12.744Z,99778.91
2023-03-03T06:37:39.235Z,99795.31
2023-03-03T06:40:06.491Z,99800.78
2023-03-03T06:42:33.068Z,99791.38
2023-03-03T06:44:59.621Z,99809.75
2023-03-03T06:47:26.090Z,99808.22
2023-03-03T06:49:52.665Z,99812.09
2023-03-03T06:52:23.518Z,99810.56
2023-03-03T06:54:51.627Z,99783.97
2023-03-03T06:57:25.767Z,99797.66
2023-03-03T06:59:54.929Z,99805.88
2023-03-03T07:02:22.495Z,99803.53
2023-03-03T07:04:49.455Z,99783.97
2023-03-03T07:07:20.712Z,99794.91
2023-03-03T07:09:49.643Z,99769.13
2023-03-03T07:12:22.607Z,99794.50
2023-03-03T07:15:02.212Z,99796.06
2023-03-03T07:17:30.372Z,99795.69
2023-03-03T07:19:56.919Z,99790.22
2023-03-03T07:22:25.920Z,99805.03
2023-03-03T07:24:54.871Z,99810.50
2023-03-03T07:27:29.671Z,99817.53
2023-03-03T07:30:13.052Z,99817.94
2023-03-03T07:32:42.562Z,99827.31
2023-03-03T07:35:36.913Z,99837.06
2023-03-03T07:38:04.198Z,99807.34
2023-03-03T07:40:33.761Z,99849.59
2023-03-03T07:43:01.101Z,99841.00
2023-03-03T07:45:36.952Z,99846.47
2023-03-03T07:48:15.333Z,99848.84
2023-03-03T07:50:41.844Z,99842.59
2023-03-03T07:53:15.370Z,99855.09
2023-03-03T07:55:42.035Z,99828.50
2023-03-03T07:58:16.590Z,99860.56
2023-03-03T08:00:43.029Z,99854.72
2023-03-03T08:03:18.523Z,99861.34
2023-03-03T08:05:47.322Z,99857.47
2023-03-03T08:08:31.261Z,99847.66
2023-03-03T08:10:59.376Z,99854.34
2023-03-03T08:13:35.006Z,99857.47
2023-03-03T08:16:04.751Z,99862.53
2023-03-03T08:18:50.039Z,99873.09
2023-03-03T08:21:18.963Z,99877.00
2023-03-03T08:23:45.713Z,99870.34
2023-03-03T08:26:13.975Z,99863.69
2023-03-03T08:28:40.768Z,99865.28
2023-03-03T08:31:18.345Z,99857.47
2023-03-03T08:33:49.037Z,99861.38
2023-03-03T08:36:15.631Z,99859.03
2023-03-03T08:38:42.370Z,99841.44
2023-03-03T08:41:09.152Z,99846.50
2023-03-03T08:43:35.694Z,99830.47
2023-03-03T08:46:05.242Z,99853.56
2023-03-03T08:48:32.447Z,99866.03
2023-03-03T08:50:58.984Z,99847.25
2023-03-03T08:53:25.831Z,99870.75
2023-03-03T08:55:52.325Z,99862.91
2023-03-03T08:58:21.196Z,99876.22
2023-03-03T09:00:50.212Z,99879.75
2023-03-03T09:03:17.621Z,99891.06
2023-03-03T09:05:45.161Z,99897.72
2023-03-03T09:08:11.866Z,99903.19
2023-03-03T09:10:38.911Z,99874.63
2023-03-03T09:13:14.480Z,99895.38
2023-03-03T09:15:41.195Z,99894.19
2023-03-03T09:18:18.640Z,99869.94
2023-03-03T09:20:48.149Z,99892.63
2023-03-03T09:23:43.917Z,99888.75
2023-03-03T09:26:30.351Z,99891.09
2023-03-03T09:29:24.951Z,99892.63
2023-03-03T09:31:56.774Z,99865.28
2023-03-03T09:34:41.665Z,99886.03
2023-03-03T09:37:24.198Z,99888.75
2023-03-03T09:39:52.748Z,99893.44
2023-03-03T09:42:35.763Z,99870.75
2023-03-03T09:45:26.772Z,99884.81
2023-03-03T09:48:04.539Z,99885.22
2023-03-03T09:50:42.767Z,99889.91
2023-03-03T09:53:35.520Z,99881.28
2023-03-03T09:56:08.372Z,99883.22
2023-03-03T09:58:56.617Z,99885.56
2023-03-03T10:01:34.846Z,99871.47
2023-03-03T10:04:16.815Z,99887.84
2023-03-03T10:06:53.970Z,99881.19
2023-03-03T10:09:35.451Z,99892.56
2023-03-03T10:12:17.972Z,99881.59
2023-03-03T10:14:59.519Z,99883.97
2023-03-03T10:17:40.852Z,99881.22
2023-03-03T10:20:21.799Z,99875.72
2023-03-03T10:23:02.212Z,99882.34
2023-03-03T10:25:31.777Z,99894.09
2023-03-03T10:28:19.505Z,99890.94
2023-03-03T10:31:10.742Z,99891.34
2023-03-03T10:34:02.851Z,99884.69
2023-03-03T10:36:50.642Z,99878.38
2023-03-03T10:39:42.508Z,99869.75
2023-03-03T10:42:25.267Z,99889.66
2023-03-03T10:45:05.646Z,99879.88
2023-03-03T10:47:41.482Z,99876.28
2023-03-03T10:50:07.966Z,99894.69
2023-03-03T10:52:34.531Z,99893.06
2023-03-03T10:55:28.030Z,99888.03
2023-03-03T10:58:30.167Z,99882.97
2023-03-03T11:01:34.230Z,99878.25
2023-03-03T11:04:16.898Z,99860.28
2023-03-03T11:06:51.632Z,99879.84
2023-03-03T11:09:31.942Z,99879.00
2023-03-03T11:12:22.407Z,99893.88
2023-03-03T11:14:58.285Z,99889.16
2023-03-03T11:18:03.702Z,99884.00
2023-03-03T11:20:48.222Z,99874.22
2023-03-03T11:23:27.769Z,99877.69
2023-03-03T11:26:07.458Z,99877.22
2023-03-03T11:28:55.348Z,99870.16
2023-03-03T11:31:40.017Z,99868.63
2023-03-03T11:34:12.577Z,99871.88
2023-03-03T11:37:04.433Z,99872.28
2023-03-03T11:39:30.944Z,99869.19
2023-03-03T11:41:58.527Z,99875.09
2023-03-03T11:44:32.252Z,99876.72
2023-03-03T11:47:19.659Z,99870.47
2023-03-03T11:49:56.238Z,99865.47
2023-03-03T11:52:43.497Z,99838.50
2023-03-03T11:55:13.950Z,99865.06
2023-03-03T11:57:52.331Z,99862.63
2023-03-03T12:00:31.466Z,99854.66
2023-03-03T12:03:16.669Z,99859.72
2023-03-03T12:06:06.584Z,99836.59
2023-03-03T12:09:04.079Z,99858.31
2023-03-03T12:11:54.275Z,99865.28
2023-03-03T12:14:20.852Z,99849.47
2023-03-03T12:16:50.128Z,99840.81
2023-03-03T12:19:31.301Z,99809.13
2023-03-03T12:22:12.093Z,99847.41
2023-03-03T12:25:11.220Z,99839.94
2023-03-03T12:28:05.657Z,99823.09
2023-03-03T12:31:18.749Z,99834.69
2023-03-03T12:33:50.981Z,99837.44
2023-03-03T12:36:23.440Z,99831.91
2023-03-03T12:39:40.711Z,99836.59
2023-03-03T12:42:20.638Z,99834.53
2023-03-03T12:44:47.155Z,99831.00
2023-03-03T12:47:25.283Z,99825.53
2023-03-03T12:50:10.274Z,99828.00
2023-03-03T12:52:58.347Z,99825.59
2023-03-03T12:55:51.274Z,99797.41
2023-03-03T12:58:23.641Z,99827.91
2023-03-03T13:00:55.390Z,99822.50
2023-03-03T13:03:31.922Z,99819.41
2023-03-03T13:06:23.897Z,99818.91
2023-03-03T13:09:09.035Z,99818.88
2023-03-03T13:11:45.081Z,99794.28
2023-03-03T13:14:20.765Z,99806.75
2023-03-03T13:17:08.607Z,99816.19
2023-03-03T13:19:41.352Z,99795.06
2023-03-03T13:22:17.854Z,99805.94
2023-03-03T13:24:56.049Z,99807.91
2023-03-03T13:27:26.161Z,99799.38
2023-03-03T13:30:15.933Z,99809.25
2023-03-03T13:33:08.546Z,99820.22
2023-03-03T13:35:51.982Z,99808.00
2023-03-03T13:38:42.419Z,99810.66
2023-03-03T13:41:25.599Z,99800.41
2023-03-03T13:44:01.355Z,99801.31
2023-03-03T13:47:07.807Z,99800.94
2023-03-03T13:49:41.127Z,99794.63
2023-03-03T13:52:10.341Z,99793.78
2023-03-03T13:54:51.979Z,99801.50
2023-03-03T13:58:10.011Z,99795.38
2023-03-03T14:01:08.955Z,99802.69
2023-03-03T14:03:38.232Z,99796.69
2023-03-03T14:06:07.792Z,99786.88
2023-03-03T14:08:49.617Z,99793.00
2023-03-03T14:11:48.314Z,99780.13
2023-03-03T14:14:27.325Z,99781.72
2023-03-03T14:17:29.286Z,99775.56
2023-03-03T14:20:27.673Z,99784.13
2023-03-03T14:23:00.036Z,99774.53
2023-03-03T14:25:26.659Z,99767.22
2023-03-03T14:28:00.954Z,99783.44
2023-03-03T14:30:30.462Z,99784.78
2023-03-03T14:33:09.306Z,99778.63
2023-03-03T14:35:41.560Z,99777.78
2023-03-03T14:38:34.412Z,99781.22
2023-03-03T14:41:11.642Z,99750.78
2023-03-03T14:43:46.931Z,99771.13
2023-03-03T14:46:22.850Z,99760.50
2023-03-03T14:48:54.718Z,99760.09
2023-03-03T14:51:38.983Z,99755.31
2023-03-03T14:54:09.335Z,99752.09
2023-03-03T14:56:37.616Z,99752.84
2023-03-03T14:59:20.804Z,99747.38
2023-03-03T15:01:47.511Z,99749.88
2023-03-03T15:04:14.051Z,99745.66
2023-03-03T15:06:43.348Z,99742.53
2023-03-03T15:09:32.638Z,99734.47
2023-03-03T15:12:00.478Z,99725.94
2023-03-03T15:14:38.693Z,99713.53
2023-03-03T15:17:23.547Z,99750.31
2023-03-03T15:20:02.268Z,99733.88
2023-03-03T15:22:55.374Z,99736.78
2023-03-03T15:25:42.835Z,99737.69
2023-03-03T15:29:01.669Z,99722.44
2023-03-03T15:31:30.845Z,99724.28
2023-03-03T15:34:03.609Z,99730.88
2023-03-03T15:36:46.827Z,99726.81
2023-03-03T15:39:16.833Z,99722.75
2023-03-03T15:41:56.404Z,99721.47
2023-03-03T15:44:51.478Z,99730.00
2023-03-03T15:47:39.216Z,99724.06
2023-03-03T15:50:21.787Z,99725.22
2023-03-03T15:53:08.477Z,99714.75
2023-03-03T15:55:56.231Z,99719.09
2023-03-03T15:58:44.016Z,99716.06
2023-03-03T16:01:10.729Z,99709.38
2023-03-03T16:03:40.938Z,99710.56
2023-03-03T16:06:22.524Z,99717.22
2023-03-03T16:09:10.382Z,99711.69
2023-03-03T16:12:00.861Z,99713.22
2023-03-03T16:14:48.922Z,99717.66
2023-03-03T16:17:18.542Z,99715.81
2023-03-03T16:20:16.213Z,99711.09
2023-03-03T16:22:45.634Z,99709.16
2023-03-03T16:25:15.858Z,99705.69
2023-03-03T16:28:10.544Z,99712.00
2023-03-03T16:30:51.704Z,99715.19
2023-03-03T16:33:22.802Z,99718.41
2023-03-03T16:36:12.439Z,99723.97
2023-03-03T16:38:42.170Z,99721.34
2023-03-03T16:41:15.925Z,99709.34
2023-03-03T16:43:51.673Z,99721.03
2023-03-03T16:46:19.137Z,99734.00
2023-03-03T16:48:49.298Z,99748.16
2023-03-03T16:51:46.110Z,99742.72
2023-03-03T16:54:44.911Z,99744.31
2023-03-03T16:57:39.110Z,99758.09
2023-03-03T17:00:05.726Z,99756.91
2023-03-03T17:02:44.276Z,99756.09
2023-03-03T17:05:17.578Z,99765.97
2023-03-03T17:07:54.116Z,99740.25
2023-03-03T17:10:26.502Z,99740.25
2023-03-03T17:12:58.761Z,99769.19
2023-03-03T17:15:38.896Z,99767.66
2023-03-03T17:18:14.544Z,99753.28
2023-03-03T17:20:49.692Z,99769.31
2023-03-03T17:24:00.941Z,99773.59
2023-03-03T17:26:51.693Z,99762.34
2023-03-03T17:30:04.079Z,99763.88
2023-03-03T17:32:37.743Z,99770.13
2023-03-03T17:35:14.542Z,99770.88
2023-03-03T17:37:54.027Z,99778.75
2023-03-03T17:40:41.578Z,99788.94
2023-03-03T17:43:16.263Z,99769.78
2023-03-03T17:45:45.255Z,99786.63
2023-03-03T17:48:11.687Z,99785.03
2023-03-03T17:51:08.817Z,99776.81
2023-03-03T17:53:48.266Z,99785.41
2023-03-03T17:56:21.669Z,99774.41
2023-03-03T17:58:58.421Z,99788.53
2023-03-03T18:02:00.540Z,99794.41
2023-03-03T18:05:04.538Z,99777.22
2023-03-03T18:07:40.740Z,99787.34
2023-03-03T18:10:10.418Z,99784.63
2023-03-03T18:12:44.957Z,99768.66
2023-03-03T18:15:23.408Z,99783.44
2023-03-03T18:18:04.093Z,99784.25
2023-03-03T18:20:45.042Z,99785.78
2023-03-03T18:23:35.336Z,99780.72
2023-03-03T18:26:04.146Z,99796.75
2023-03-03T18:28:47.822Z,99790.50
2023-03-03T18:31:44.886Z,99765.16
2023-03-03T18:34:20.564Z,99791.31
2023-03-03T18:36:56.093Z,99794.84
2023-03-03T18:40:13.471Z,99794.47
2023-03-03T18:42:40.899Z,99791.00
2023-03-03T18:45:28.280Z,99780.78
2023-03-03T18:48:00.988Z,99794.09
2023-03-03T18:50:33.785Z,99787.47
2023-03-03T18:53:22.651Z,99762.50
2023-03-03T18:55:51.740Z,99780.78
2023-03-03T18:58:18.451Z,99789.38
2023-03-03T19:00:59.800Z,99785.50
2023-03-03T19:03:47.424Z,99782.78
2023-03-03T19:06:52.714Z,99777.28
2023-03-03T19:09:21.046Z,99787.84
2023-03-03T19:11:56.873Z,99792.94
2023-03-03T19:14:27.685Z,99790.63
2023-03-03T19:16:55.904Z,99783.97
2023-03-03T19:19:30.217Z,99781.22
2023-03-03T19:22:25.927Z,99785.94
2023-03-03T19:25:27.199Z,99796.91
2023-03-03T19:28:14.999Z,99795.31
2023-03-03T19:30:56.224Z,99797.25
2023-03-03T19:33:42.883Z,99802.41
2023-03-03T19:36:23.104Z,99798.09
2023-03-03T19:38:52.463Z,99799.69
2023-03-03T19:42:01.145Z,99799.69
2023-03-03T19:45:09.505Z,99800.09
2023-03-03T19:47:44.732Z,99793.47
2023-03-03T19:50:30.135Z,99793.84
2023-03-03T19:53:21.188Z,99800.91
2023-03-03T19:55:59.822Z,99798.53
2023-03-03T19:58:55.622Z,99788.75
2023-03-03T20:01:53.421Z,99789.94
2023-03-03T20:04:32.409Z,99787.19
2023-03-03T20:07:10.595Z,99781.72
2023-03-03T20:10:01.274Z,99800.09
2023-03-03T20:12:39.196Z,99799.31
2023-03-03T20:15:20.681Z,99798.16
2023-03-03T20:17:58.562Z,99791.47
2023-03-03T20:20:37.233Z,99789.53
2023-03-03T20:23:07.753Z,99788.31
2023-03-03T20:25:40.112Z,99765.28
2023-03-03T20:28:30.104Z,99783.63
2023-03-03T20:31:05.550Z,99803.97
2023-03-03T20:33:50.427Z,99802.81
2023-03-03T20:36:27.750Z,99789.53
2023-03-03T20:39:06.902Z,99793.81
2023-03-03T20:41:55.930Z,99796.94
2023-03-03T20:44:48.888Z,99786.81
2023-03-03T20:47:15.372Z,99800.88
2023-03-03T20:50:03.174Z,99798.50
2023-03-03T20:53:15.912Z,99798.16
2023-03-03T20:56:00.048Z,99803.63
2023-03-03T20:58:48.037Z,99798.53
2023-03-03T21:01:16.951Z,99804.78
2023-03-03T21:03:47.886Z,99797.78
2023-03-03T21:06:18.022Z,99801.31
2023-03-03T21:08:54.781Z,99801.31
2023-03-03T21:11:30.318Z,99801.31
2023-03-03T21:13:58.059Z,99801.72
2023-03-03T21:16:24.939Z,99806.41
2023-03-03T21:19:00.419Z,99819.72
2023-03-03T21:21:30.258Z,99814.25
2023-03-03T21:23:56.993Z,99814.63
2023-03-03T21:26:51.885Z,99806.44
2023-03-03T21:29:29.648Z,99820.53
2023-03-03T21:32:04.898Z,99804.91
2023-03-03T21:34:39.153Z,99803.31
2023-03-03T21:37:11.205Z,99811.53
2023-03-03T21:39:43.595Z,99806.09
2023-03-03T21:42:16.111Z,99809.19
2023-03-03T21:44:50.028Z,99790.06
2023-03-03T21:47:21.404Z,99802.56
2023-03-03T21:49:49.792Z,99786.94
2023-03-03T21:52:18.522Z,99802.94
2023-03-03T21:54:46.908Z,99806.09
2023-03-03T21:57:14.218Z,99808.44
2023-03-03T21:59:41.251Z,99803.75
2023-03-03T22:02:08.647Z,99797.09
2023-03-03T22:04:35.262Z,99800.56
2023-03-03T22:07:01.879Z,99791.19
2023-03-03T22:09:28.406Z,99786.91
2023-03-03T22:11:55.140Z,99783.75
2023-03-03T22:14:23.980Z,99782.16
2023-03-03T22:16:50.612Z,99774.72
2023-03-03T22:19:17.133Z,99740.78
2023-03-03T22:21:43.951Z,99745.41
2023-03-03T22:24:10.492Z,99767.31
2023-03-03T22:26:39.505Z,99750.53
2023-03-03T22:29:06.637Z,99750.53
2023-03-03T22:31:33.569Z,99750.16
2023-03-03T22:34:00.321Z,99744.66
2023-03-03T22:36:26.958Z,99754.84
2023-03-03T22:38:53.595Z,99750.91
2023-03-03T22:41:20.275Z,99749.38
2023-03-03T22:43:48.021Z,99744.25
2023-03-03T22:46:14.578Z,99714.97
2023-03-03T22:48:41.602Z,99734.47
2023-03-03T22:51:08.005Z,99737.59
2023-03-03T22:53:34.676Z,99725.03
2023-03-03T22:56:01.236Z,99728.16
2023-03-03T22:58:29.384Z,99730.13
2023-03-03T23:00:56.039Z,99722.72
2023-03-03T23:03:22.773Z,99714.91
2023-03-03T23:05:51.661Z,99735.25
2023-03-03T23:08:19.697Z,99731.31
2023-03-03T23:10:46.563Z,99707.13
2023-03-03T23:13:13.199Z,99723.50
2023-03-03T23:15:40.114Z,99705.56
2023-03-03T23:18:06.834Z,99696.22
2023-03-03T23:20:33.480Z,99714.91
2023-03-03T23:23:00.124Z,99718.00
2023-03-03T23:25:28.588Z,99727.41
2023-03-03T23:27:55.736Z,99729.78
2023-03-03T23:30:23.339Z,99720.75
2023-03-03T23:32:51.402Z,99723.50
2023-03-03T23:35:18.135Z,99696.53
2023-03-03T23:37:45.901Z,99721.53
2023-03-03T23:40:13.453Z,99709.44
2023-03-03T23:42:40.338Z,99722.69
2023-03-03T23:45:07.672Z,99698.06
2023-03-03T23:47:34.227Z,99699.28
2023-03-03T23:50:00.837Z,99714.47
2023-03-03T23:52:27.284Z,99720.34
2023-03-03T23:54:54.046Z,99690.66
2023-03-03T23:57:20.771Z,99709.00
2023-03-03T23:59:47.458Z,99699.25
